createdAt,value
2022-11-21T00:08:37.470Z,19.20
2022-11-21T00:19:04.648Z,16.40
2022-11-21T00:29:31.915Z,18.60
2022-11-21T00:39:59.279Z,18.60
2022-11-21T00:50:26.740Z,19.00
2022-11-21T01:00:54.442Z,20.20
2022-11-21T01:11:23.059Z,23.80
2022-11-21T01:21:51.082Z,19.40
2022-11-21T01:32:19.086Z,20.60
2022-11-21T01:43:04.773Z,18.00
2022-11-21T01:53:32.268Z,14.90
2022-11-21T02:04:01.021Z,17.30
2022-11-21T02:14:29.380Z,15.10
2022-11-21T02:25:03.809Z,15.90
2022-11-21T02:35:31.352Z,15.00
2022-11-21T02:45:59.228Z,14.10
2022-11-21T02:56:26.560Z,23.60
2022-11-21T03:06:54.347Z,13.70
2022-11-21T03:17:21.804Z,13.30
2022-11-21T03:27:51.225Z,18.90
2022-11-21T03:38:18.560Z,14.30
2022-11-21T03:48:45.840Z,14.20
2022-11-21T03:59:13.093Z,16.40
2022-11-21T04:09:40.320Z,14.60
2022-11-21T04:20:09.325Z,12.60
2022-11-21T04:30:37.035Z,14.90
2022-11-21T04:41:05.060Z,16.20
2022-11-21T04:51:32.344Z,12.70
2022-11-21T05:01:59.687Z,13.90
2022-11-21T05:12:44.756Z,15.40
2022-11-21T05:23:12.041Z,12.40
2022-11-21T05:33:39.352Z,14.60
2022-11-21T05:44:06.963Z,18.40
2022-11-21T05:54:34.308Z,18.80
2022-11-21T06:05:01.549Z,20.60
2022-11-21T06:15:29.915Z,25.70
2022-11-21T06:26:00.835Z,26.00
2022-11-21T06:36:29.001Z,26.20
2022-11-21T06:46:56.672Z,30.40
2022-11-21T06:57:24.147Z,37.30
2022-11-21T07:07:52.037Z,35.40
2022-11-21T07:18:20.707Z,44.20
2022-11-21T07:39:14.893Z,35.50
2022-11-21T07:49:42.915Z,39.40
2022-11-21T08:00:13.597Z,35.20
2022-11-21T08:10:43.104Z,37.30
2022-11-21T08:21:10.566Z,39.70
2022-11-21T08:31:39.467Z,44.10
2022-11-21T08:42:07.736Z,38.60
2022-11-21T08:52:35.789Z,37.90
2022-11-21T09:03:07.158Z,54.60
2022-11-21T09:13:35.695Z,40.50
2022-11-21T09:24:03.581Z,39.40
2022-11-21T09:34:32.790Z,36.60
2022-11-21T09:45:10.107Z,35.90
2022-11-21T09:55:47.337Z,34.70
2022-11-21T10:06:20.957Z,34.40
2022-11-21T10:16:54.828Z,38.60
2022-11-21T10:27:31.241Z,29.40
2022-11-21T10:38:02.932Z,21.90
2022-11-21T10:48:30.265Z,14.90
2022-11-21T10:58:59.542Z,9.30
2022-11-21T11:20:05.864Z,9.70
2022-11-21T11:30:39.958Z,8.30
2022-11-21T11:41:15.450Z,6.10
2022-11-21T11:51:47.093Z,6.50
2022-11-21T12:02:22.371Z,8.00
2022-11-21T12:12:56.017Z,6.30
2022-11-21T12:23:26.245Z,6.10
2022-11-21T12:34:00.546Z,4.80
2022-11-21T12:44:41.020Z,3.50
2022-11-21T12:55:19.483Z,4.90
2022-11-21T13:05:50.965Z,4.70
2022-11-21T13:16:36.947Z,5.20
2022-11-21T13:27:04.406Z,3.80
2022-11-21T13:38:04.549Z,5.70
2022-11-21T13:48:59.167Z,4.70
2022-11-21T13:59:44.167Z,5.00
2022-11-21T14:10:33.665Z,5.10
2022-11-21T14:21:03.131Z,5.50
2022-11-21T14:31:30.452Z,5.90
2022-11-21T14:42:00.561Z,5.90
2022-11-21T14:52:31.789Z,7.10
2022-11-21T15:03:00.365Z,7.50
2022-11-21T15:13:51.473Z,5.90
2022-11-21T15:24:32.642Z,6.20
2022-11-21T15:35:00.194Z,7.20
2022-11-21T15:45:28.789Z,9.50
2022-11-21T16:06:22.450Z,8.70
2022-11-21T16:16:49.726Z,15.70
2022-11-21T16:27:17.008Z,11.70
2022-11-21T16:37:44.285Z,9.80
2022-11-21T16:48:11.643Z,10.60
2022-11-21T16:58:40.878Z,67.20
2022-11-21T17:09:08.129Z,20.90
2022-11-21T17:19:35.408Z,27.10
2022-11-21T17:30:02.681Z,15.00
2022-11-21T17:40:30.332Z,13.90
2022-11-21T17:51:06.192Z,12.70
2022-11-21T18:01:34.663Z,15.30
2022-11-21T18:12:02.259Z,19.10
2022-11-21T18:22:29.836Z,16.30
2022-11-21T18:32:57.297Z,17.80
2022-11-21T18:43:24.694Z,18.20
2022-11-21T18:53:55.760Z,16.60
2022-11-21T19:04:23.603Z,25.10
2022-11-21T19:14:52.091Z,27.50
2022-11-21T19:25:20.152Z,23.60
2022-11-21T19:35:48.122Z,22.50
2022-11-21T19:46:17.783Z,22.40
2022-11-21T19:56:45.907Z,27.80
2022-11-21T20:07:14.216Z,25.70
2022-11-21T20:17:42.421Z,30.30
2022-11-21T20:28:11.869Z,32.30
2022-11-21T20:38:39.720Z,32.00
2022-11-21T20:49:07.280Z,35.10
2022-11-21T20:59:35.176Z,39.80
2022-11-21T21:10:03.217Z,44.30
2022-11-21T21:20:36.365Z,34.50
2022-11-21T21:31:14.713Z,39.20
2022-11-21T21:41:44.863Z,39.30
2022-11-21T21:52:12.395Z,39.40
2022-11-21T22:02:40.521Z,38.40
2022-11-21T22:13:07.842Z,28.40
2022-11-21T22:23:36.556Z,30.80
2022-11-21T22:44:31.097Z,29.40
2022-11-21T22:54:58.720Z,31.70
2022-11-21T23:05:26.020Z,25.20
2022-11-21T23:15:53.244Z,30.70
2022-11-21T23:26:20.753Z,33.80
2022-11-21T23:36:48.236Z,35.90
2022-11-21T23:47:15.662Z,37.50
2022-11-21T23:57:43.081Z,28.60
